• Join FlightAware (Why Join?)
  • Login
  • US Flag 
02:12AM EDT


 

Airport Tracker/Info


-or-


 

Live Flight TrackerFlight Track Log ✈ TCF3494 ✈ 12-Jul-2013 ✈ KORD - KLGA

Flight Track Log - Related Links

Times and Time Zones

All times are in EDT time to prevent confusion due to time zone crossing. See the TCF3494 flight status page for this flight to view local times or setup timezone preferences in your user account.

Time Position Orientation Groundspeed Altitude Reporting Facility
EDT Latitude Longitude Course Direction KTS MPH feet Rate Location/Type
08:54PM 41.9333 -87.9000 124° Southeast 175 201 2,200  Level Chicago TRACON
08:55PM 41.9000 -87.8333 124° Southeast 228 262 3,800 1,500 Climbing Chicago TRACON
08:56PM 41.8758 -87.7592 114° Southeast 247 284 5,100 2,340 Climbing Chicago Center
08:57PM 41.9086 -87.6422 69° East 283 326 8,700 3,120 Climbing Chicago Center
08:58PM 41.9383 -87.5461 67° East 280 322 11,600 2,580 Climbing Chicago Center
08:59PM 41.9656 -87.4433 70° East 290 334 14,100 2,460 Climbing Chicago Center
09:00PM 41.9600 -87.3231 94° East 315 362 16,700 2,340 Climbing Chicago Center
09:01PM 41.9531 -87.2050 94° East 318 366 19,000 1,620 Climbing Chicago Center
09:02PM 41.9472 -87.0806 94° East 329 379 20,100 1,380 Climbing Chicago Center
09:03PM 41.9369 -86.9067 94° East 380 437 21,900 1,620 Climbing Chicago Center
09:04PM 41.8983 -86.7600 109° East 410 472 23,500 1,620 Climbing Chicago Center
09:05PM 41.8581 -86.6058 109° East 424 488 25,300 1,740 Climbing Chicago Center
09:06PM 41.8197 -86.4564 109° East 425 489 27,200 1,440 Climbing Chicago Center
09:07PM 41.8111 -86.3031 94° East 415 478 28,400 1,680 Climbing Chicago Center
09:08PM 41.8064 -86.1567 92° East 399 459 30,800 1,800 Climbing Chicago Center
09:09PM 41.8006 -86.0175 93° East 380 437 32,200 1,260 Climbing Chicago Center
09:10PM 41.7942 -85.8475 93° East 380 437 33,500 1,140 Climbing Chicago Center
09:11PM 41.7883 -85.7044 93° East 383 441 34,600 720 Climbing Chicago Center
09:13PM 41.7842 -85.5650 92° East 377 434 35,000 180 Climbing Chicago Center
09:14PM 41.7792 -85.4200 93° East 380 437 35,000  Level Chicago Center
09:15PM 41.7711 -85.2650 94° East 403 464 35,000  Level Chicago Center
09:16PM 41.7636 -85.1086 94° East 422 486 35,000  Level Chicago Center
09:17PM 41.7558 -84.9569 94° East 415 478 35,000  Level Chicago Center
09:18PM 41.7464 -84.8044 95° East 412 474 35,000  Level Chicago Center
09:19PM 41.7372 -84.6253 94° East 405 466 35,000  Level Chicago Center
09:20PM 41.7342 -84.5097 92° East 405 466 35,000  Level Cleveland Center
09:21PM 41.7247 -84.3589 95° East 405 466 35,000  Level Cleveland Center
09:22PM 41.7122 -84.2300 97° East 405 466 35,000  Level Cleveland Center
09:23PM 41.7064 -84.0794 93° East 405 466 35,000  Level Cleveland Center
09:24PM 41.6964 -83.9289 95° East 405 466 35,000  Level Cleveland Center
09:25PM 41.6881 -83.7781 94° East 405 466 35,000  Level Cleveland Center
09:26PM 41.6778 -83.6275 95° East 405 466 35,000  Level Cleveland Center
09:27PM 41.6692 -83.4742 94° East 405 466 35,000  Level Cleveland Center
09:28PM 41.6603 -83.3208 94° East 410 472 35,000  Level Cleveland Center
09:29PM 41.6494 -83.1675 95° East 410 472 35,000  Level Cleveland Center
09:30PM 41.6383 -83.0086 95° East 410 472 35,000  Level Cleveland Center
09:31PM 41.6289 -82.8528 95° East 420 483 35,000  Level Cleveland Center
09:32PM 41.6194 -82.6942 95° East 426 490 35,000  Level Cleveland Center
09:33PM 41.6097 -82.5356 95° East 426 490 35,000  Level Cleveland Center
09:34PM 41.5978 -82.3769 96° East 427 491 35,000  Level Cleveland Center
09:35PM 41.5858 -82.2044 95° East 427 491 35,000  Level Cleveland Center
09:36PM 41.5733 -82.0486 96° East 427 491 35,000  Level Cleveland Center
09:37PM 41.5628 -81.8875 95° East 427 491 35,000  Level Cleveland Center
09:38PM 41.5497 -81.7261 96° East 432 497 35,000  Level Cleveland Center
09:39PM 41.5389 -81.5681 95° East 426 490 35,000  Level Cleveland Center
09:40PM 41.5253 -81.4264 97° East 426 490 35,000  Level Cleveland Center
09:41PM 41.5119 -81.2681 96° East 426 490 35,000  Level Cleveland Center
09:42PM 41.5003 -81.1044 95° East 426 490 35,000  Level Cleveland Center
09:43PM 41.4842 -80.9408 97° East 437 503 35,000  Level Cleveland Center
09:44PM 41.4719 -80.7772 96° East 437 503 35,000  Level Cleveland Center
09:45PM 41.4556 -80.5969 97° East 442 509 35,000  Level Cleveland Center
09:46PM 41.4431 -80.4419 96° East 442 509 35,000  Level Cleveland Center
09:47PM 41.4281 -80.2758 97° East 442 509 35,000  Level Cleveland Center
09:48PM 41.4128 -80.1125 97° East 442 509 35,000  Level Cleveland Center
09:49PM 41.3997 -79.9714 97° East 442 509 35,000  Level Cleveland Center
09:50PM 41.3842 -79.8083 97° East 442 509 35,000  Level Cleveland Center
09:51PM 41.3681 -79.6258 97° East 448 516 35,000 -240 Level Cleveland Center
09:52PM 41.3519 -79.4600 97° East 448 516 34,600 -780 Descending Cleveland Center
09:53PM 41.3356 -79.2917 97° East 448 516 33,500 -840 Descending Cleveland Center
09:54PM 41.3194 -79.1456 98° East 448 516 33,000 -300 Descending Cleveland Center
09:55PM 41.3047 -78.9800 97° East 448 516 33,000  Level Cleveland Center
09:56PM 41.2853 -78.7925 98° East 448 516 33,000  Level Cleveland Center
09:57PM 41.2700 -78.6244 97° East 448 516 33,000  Level Cleveland Center
09:58PM 41.2369 -78.3314 98° East 439 505 33,000  Level New York Center
09:59PM 41.2161 -78.1661 99° East 450 518 33,000  Level New York Center
10:00PM 41.1969 -78.0014 99° East 450 518 33,000  Level New York Center
10:01PM 41.1761 -77.8308 99° East 450 518 33,000 -180 Level New York Center
10:02PM 41.1547 -77.6633 100° East 455 524 32,700 -1,020 Descending New York Center
10:03PM 41.1267 -77.4950 102° East 455 524 31,000 -1,740 Descending New York Center
10:04PM 41.0986 -77.3272 102° East 460 529 29,200 -1,800 Descending New York Center
10:05PM 41.0725 -77.1594 102° East 460 529 27,400 -1,740 Descending New York Center
10:06PM 41.0456 -76.9972 102° East 454 522 25,800 -1,620 Descending New York Center
10:07PM 41.0183 -76.8406 103° East 448 516 24,200 -1,620 Descending New York Center
10:08PM 40.9944 -76.6928 102° East 429 494 22,700 -1,500 Descending New York Center
10:09PM 40.9686 -76.5450 103° East 412 474 21,200 -1,500 Descending New York Center
10:10PM 40.9461 -76.4028 102° East 406 467 19,700 -1,620 Descending New York Center
10:11PM 40.9236 -76.2608 102° East 399 459 18,100 -1,020 Descending New York Center
10:12PM 40.8925 -76.1239 107° East 399 459 17,800 -1,200 Descending New York Center
10:13PM 40.8553 -75.9756 108° East 388 447 15,800 -1,920 Descending New York Center
10:14PM 40.8253 -75.8497 107° East 374 430 14,000 -1,440 Descending New York Center
10:15PM 40.7953 -75.7242 107° East 368 423 13,000 -540 Descending New York Center
10:16PM 40.7628 -75.6039 110° East 358 412 13,000  Level New York Center
10:17PM 40.7339 -75.4953 109° East 353 406 13,000  Level New York Center
10:18PM 40.6944 -75.3856 115° Southeast 347 399 13,000 -180 Level New York Center
10:19PM 40.6589 -75.2767 113° Southeast 330 380 12,700 -720 Descending New York Center
10:20PM 40.6214 -75.1647 114° Southeast 308 354 11,600 -1,080 Descending New York Center
10:21PM 40.5933 -75.0811 114° Southeast 286 329 10,600 -900 Descending New York Center
10:22PM 40.5575 -74.9750 114° Southeast 286 329 9,900 -300 Descending New York Center
10:23PM 40.5258 -74.8692 111° Southeast 302 348 10,000 60 Climbing New York Center
10:24PM 40.5000 -74.7833 112° Southeast 327 376 10,100  Climbing New York TRACON
10:25PM 40.4667 -74.6833 114° Southeast 318 366 10,100 -240 Level New York TRACON
10:26PM 40.4333 -74.5833 114° Southeast 287 330 9,700 -1,020 Descending New York TRACON
10:27PM 40.4000 -74.4833 114° Southeast 275 316 8,100 -1,080 Descending New York TRACON
10:28PM 40.4000 -74.3833 90° East 281 323 7,500 -480 Descending New York TRACON
10:29PM 40.4333 -74.3000 62° Northeast 282 325 7,100 -240 Descending New York TRACON
10:30PM 40.4833 -74.2000 57° Northeast 278 320 7,100 -480 Level New York TRACON
10:31PM 40.5167 -74.1167 62° Northeast 274 315 6,200 -1,440 Descending New York TRACON
10:32PM 40.5667 -74.0500 45° Northeast 272 313 4,300 -1,560 Descending New York TRACON
10:33PM 40.6167 -74.0167 27° Northeast 182 209 3,100 -840 Descending New York TRACON
10:34PM 40.6500 -73.9833 37° Northeast 157 181 2,700 -660 Descending New York TRACON
10:35PM 40.6833 -73.9500 37° Northeast 150 173 1,900 -900 Descending New York TRACON